createdAt,value
2023-05-10T00:07:31.179Z,18.90
2023-05-10T00:17:37.684Z,19.40
2023-05-10T00:27:44.200Z,20.20
2023-05-10T00:37:50.899Z,21.90
2023-05-10T00:47:58.613Z,20.50
2023-05-10T00:58:05.522Z,21.10
2023-05-10T01:08:12.062Z,23.70
2023-05-10T01:18:21.800Z,23.70
2023-05-10T01:29:01.921Z,20.60
2023-05-10T01:39:13.130Z,20.60
2023-05-10T01:49:32.489Z,20.20
2023-05-10T01:59:43.616Z,20.30
2023-05-10T02:09:50.365Z,22.70
2023-05-10T02:19:58.111Z,22.00
2023-05-10T02:30:04.969Z,20.20
2023-05-10T02:40:12.471Z,21.10
2023-05-10T02:50:19.157Z,23.10
2023-05-10T03:00:27.014Z,20.50
2023-05-10T03:10:34.554Z,21.80
2023-05-10T03:20:44.891Z,23.40
2023-05-10T03:30:52.193Z,22.40
2023-05-10T03:40:58.773Z,20.60
2023-05-10T03:51:05.362Z,20.10
2023-05-10T04:01:12.112Z,20.30
2023-05-10T04:11:18.636Z,20.20
2023-05-10T04:21:25.172Z,19.80
2023-05-10T04:31:31.661Z,20.70
2023-05-10T04:41:40.504Z,22.20
2023-05-10T04:51:47.125Z,22.40
2023-05-10T05:01:53.671Z,21.00
2023-05-10T05:12:00.548Z,20.50
2023-05-10T05:22:09.179Z,24.40
2023-05-10T05:32:15.611Z,20.80
2023-05-10T05:42:22.113Z,21.00
2023-05-10T05:52:28.656Z,20.60
2023-05-10T06:02:35.397Z,20.00
2023-05-10T06:12:42.394Z,19.30
2023-05-10T06:22:49.384Z,19.10
2023-05-10T06:32:56.137Z,20.50
2023-05-10T06:43:02.740Z,16.60
2023-05-10T06:53:09.256Z,17.70
2023-05-10T07:03:15.880Z,14.60
2023-05-10T07:13:22.663Z,13.20
2023-05-10T07:23:29.189Z,10.90
2023-05-10T07:33:35.999Z,10.20
2023-05-10T07:43:42.506Z,13.90
2023-05-10T07:53:48.950Z,11.50
2023-05-10T08:03:55.819Z,10.00
2023-05-10T08:14:02.377Z,7.90
2023-05-10T08:24:09.090Z,9.30
2023-05-10T08:34:15.554Z,10.20
2023-05-10T08:44:23.167Z,6.50
2023-05-10T08:54:29.731Z,6.10
2023-05-10T09:04:36.448Z,7.20
2023-05-10T09:14:43.069Z,8.70
2023-05-10T09:24:49.583Z,8.00
2023-05-10T09:34:56.228Z,5.40
2023-05-10T09:45:06.999Z,8.80
2023-05-10T09:55:13.483Z,7.60
2023-05-10T10:05:20.179Z,9.60
2023-05-10T10:15:27.300Z,7.10
2023-05-10T10:25:34.188Z,8.40
2023-05-10T10:35:41.172Z,6.90
2023-05-10T10:46:09.848Z,7.60
2023-05-10T10:56:17.527Z,7.40
2023-05-10T11:06:34.962Z,9.00
2023-05-10T11:16:45.626Z,10.10
2023-05-10T11:26:53.576Z,6.80
2023-05-10T11:37:00.197Z,7.80
2023-05-10T11:47:07.922Z,7.70
2023-05-10T11:57:14.428Z,6.40
2023-05-10T12:07:20.924Z,15.50
2023-05-10T12:17:30.282Z,8.20
2023-05-10T12:27:37.291Z,7.70
2023-05-10T12:37:45.400Z,8.10
2023-05-10T12:47:51.970Z,6.40
2023-05-10T12:57:58.543Z,6.30
2023-05-10T13:08:05.030Z,6.70
2023-05-10T13:18:11.624Z,4.80
2023-05-10T13:28:18.130Z,7.40
2023-05-10T13:38:24.784Z,7.70
2023-05-10T13:48:31.394Z,8.40
2023-05-10T13:58:38.853Z,10.60
2023-05-10T14:08:45.397Z,8.00
2023-05-10T14:18:51.959Z,6.70
2023-05-10T14:28:58.701Z,8.00
2023-05-10T14:39:05.373Z,6.80
2023-05-10T14:49:11.966Z,6.70
2023-05-10T14:59:18.504Z,5.80
2023-05-10T15:09:25.628Z,11.60
2023-05-10T15:19:32.243Z,8.40
2023-05-10T15:29:39.000Z,6.70
2023-05-10T15:39:46.350Z,6.70
2023-05-10T15:49:52.844Z,6.60
2023-05-10T15:59:59.966Z,7.40
2023-05-10T16:10:08.139Z,10.40
2023-05-10T16:20:14.741Z,8.00
2023-05-10T16:30:23.628Z,6.80
2023-05-10T16:40:30.776Z,7.40
2023-05-10T16:50:37.451Z,6.50
2023-05-10T17:00:44.537Z,7.00
2023-05-10T17:10:51.244Z,8.70
2023-05-10T17:20:57.922Z,13.60
2023-05-10T17:31:04.697Z,8.50
2023-05-10T17:41:11.391Z,10.00
2023-05-10T17:51:18.119Z,7.90
2023-05-10T18:01:25.143Z,8.70
2023-05-10T18:11:32.006Z,15.20
2023-05-10T18:21:40.000Z,10.70
2023-05-10T18:31:46.972Z,10.80
2023-05-10T18:41:53.810Z,10.70
2023-05-10T18:52:00.492Z,13.00
2023-05-10T19:02:07.231Z,12.60
2023-05-10T19:12:13.931Z,13.50
2023-05-10T19:22:35.346Z,15.60
2023-05-10T19:32:48.696Z,15.90
2023-05-10T19:42:58.125Z,15.50
2023-05-10T19:53:04.728Z,15.20
2023-05-10T20:03:11.367Z,16.40
2023-05-10T20:13:18.100Z,15.70
2023-05-10T20:23:24.622Z,14.20
2023-05-10T20:33:31.431Z,16.10
2023-05-10T20:43:37.984Z,14.60
2023-05-10T20:53:44.440Z,18.10
2023-05-10T21:03:50.978Z,16.40
2023-05-10T21:13:58.206Z,16.10
2023-05-10T21:24:04.863Z,13.20
2023-05-10T21:34:11.336Z,14.10
2023-05-10T21:44:17.916Z,14.70
2023-05-10T21:54:24.396Z,18.90
2023-05-10T22:04:30.977Z,15.30
2023-05-10T22:14:37.453Z,15.50
2023-05-10T22:24:43.958Z,18.40
2023-05-10T22:34:50.495Z,15.40
2023-05-10T22:44:57.191Z,17.10
2023-05-10T22:55:03.745Z,15.30
2023-05-10T23:05:10.959Z,15.10
2023-05-10T23:15:17.651Z,17.20
2023-05-10T23:25:24.241Z,17.10
2023-05-10T23:35:30.779Z,20.00
2023-05-10T23:45:38.047Z,14.80
2023-05-10T23:55:44.666Z,20.30
